Time;durP1;ratioP1;P1;durP2;ratioP2;P2;SDS_P1;SDS_P2;PMS_P1;PMS_P2;Temp;Humidity;BMP_temperature;BMP_pressure;BME280_temperature;BME280_humidity;BME280_pressure;Samples;Min_cycle;Max_cycle;Signal;HPM_P1;HPM_P2
2021/10/16 00:00:08;;;;;;;1.70;1.50;;;;;;;24.29;28.15;94371.16;5038364;28;20020;-82
2021/10/16 00:02:33;;;;;;;1.70;1.60;;;;;;;24.28;27.97;94369.59;5031566;28;20033;-82
2021/10/16 00:04:59;;;;;;;1.40;1.30;;;;;;;24.29;28.10;94371.94;5013257;28;20031;-82
2021/10/16 00:07:24;;;;;;;1.60;1.50;;;;;;;24.29;27.90;94376.47;5033415;28;20028;-82
2021/10/16 00:09:49;;;;;;;1.42;1.33;;;;;;;24.28;27.99;94374.91;5017312;28;20032;-83
2021/10/16 00:12:15;;;;;;;1.52;1.42;;;;;;;24.30;28.26;94380.72;5025016;28;20044;-82
2021/10/16 00:14:41;;;;;;;1.40;1.30;;;;;;;24.28;27.83;94369.59;5033400;28;20033;-82
2021/10/16 00:17:08;;;;;;;1.65;1.55;;;;;;;24.26;28.00;94382.38;5026976;28;20036;-83
2021/10/16 00:19:38;;;;;;;1.50;1.40;;;;;;;24.35;28.08;94378.00;5017304;28;20039;-82
2021/10/16 00:22:03;;;;;;;1.50;1.40;;;;;;;24.29;28.03;94385.25;5042740;28;20082;-82
2021/10/16 00:24:31;;;;;;;1.42;1.33;;;;;;;24.29;28.08;94381.78;5030771;28;20127;-83
2021/10/16 00:26:57;;;;;;;1.52;1.33;;;;;;;24.25;27.92;94376.25;5063083;28;20037;-82
2021/10/16 00:29:22;;;;;;;1.40;1.30;;;;;;;24.29;27.71;94384.44;5032139;28;20058;-82
2021/10/16 00:31:48;;;;;;;1.58;1.48;;;;;;;24.28;28.02;94381.00;5038631;28;20033;-82
2021/10/16 00:34:13;;;;;;;1.27;1.17;;;;;;;24.26;28.01;94371.75;5032236;28;20110;-82
2021/10/16 00:36:41;;;;;;;1.45;1.35;;;;;;;24.32;27.73;94378.59;5033051;28;20044;-82
2021/10/16 00:39:09;;;;;;;1.52;1.42;;;;;;;24.28;27.80;94381.00;5015377;28;20030;-82
2021/10/16 00:41:34;;;;;;;1.60;1.50;;;;;;;24.26;27.79;94383.16;5021342;28;20025;-82
2021/10/16 00:44:20;;;;;;;1.40;1.30;;;;;;;24.39;27.97;94379.03;5016291;28;20036;-83
2021/10/16 00:46:45;;;;;;;1.73;1.30;;;;;;;24.25;27.83;94370.94;5029863;28;20033;-83
2021/10/16 00:49:13;;;;;;;1.58;1.48;;;;;;;24.26;28.06;94371.75;5026641;28;20032;-82
2021/10/16 00:51:38;;;;;;;1.50;1.40;;;;;;;24.26;28.07;94377.84;5014124;28;20034;-82
2021/10/16 00:54:07;;;;;;;1.30;1.20;;;;;;;24.24;27.61;94368.56;5011184;28;20036;-82
2021/10/16 00:56:37;;;;;;;1.50;1.40;;;;;;;24.28;27.90;94377.56;5028593;28;20063;-82
2021/10/16 00:59:06;;;;;;;1.48;1.38;;;;;;;24.26;27.76;94372.53;5016995;28;20021;-82
2021/10/16 01:01:32;;;;;;;1.33;1.23;;;;;;;24.25;27.67;94370.94;5031518;28;20063;-83
2021/10/16 01:03:58;;;;;;;1.63;1.40;;;;;;;24.26;27.79;94366.44;5017192;28;20020;-82
2021/10/16 01:06:23;;;;;;;1.50;1.40;;;;;;;24.26;27.73;94372.53;5043902;28;20020;-82
2021/10/16 01:08:49;;;;;;;1.38;1.27;;;;;;;24.23;27.75;94375.75;5039351;28;20058;-82
2021/10/16 01:11:19;;;;;;;1.27;1.17;;;;;;;24.30;27.49;94378.88;5053389;28;20029;-82
2021/10/16 01:13:44;;;;;;;1.60;1.45;;;;;;;24.24;27.66;94374.69;5018913;28;20033;-82
2021/10/16 01:16:12;;;;;;;1.40;1.30;;;;;;;24.26;27.85;94371.75;5017893;28;20090;-82
2021/10/16 01:18:38;;;;;;;1.50;1.40;;;;;;;24.26;27.56;94377.06;5037263;28;20043;-82
2021/10/16 01:21:04;;;;;;;1.80;1.70;;;;;;;24.24;27.54;94371.22;5040804;28;20025;-82
2021/10/16 01:23:30;;;;;;;1.38;1.27;;;;;;;24.24;27.89;94369.38;5039516;28;20051;-82
2021/10/16 01:25:58;;;;;;;1.67;1.58;;;;;;;24.30;27.66;94375.41;5034372;28;20147;-82
2021/10/16 01:28:26;;;;;;;1.60;1.50;;;;;;;24.25;27.55;94375.47;5011854;28;20039;-82
2021/10/16 01:30:53;;;;;;;1.45;1.35;;;;;;;24.24;27.65;94379.19;5050114;28;20024;-82
2021/10/16 01:33:18;;;;;;;1.50;1.40;;;;;;;24.23;27.61;94373.09;5036871;28;20032;-82
2021/10/16 01:35:57;;;;;;;1.52;1.42;;;;;;;24.32;27.64;94366.06;5047830;28;20095;-83
2021/10/16 01:38:23;;;;;;;1.63;1.52;;;;;;;24.21;27.65;94364.63;5031810;28;20031;-82
2021/10/16 01:40:48;;;;;;;1.40;1.30;;;;;;;24.24;27.44;94368.56;5032080;28;20029;-82
2021/10/16 01:43:14;;;;;;;1.55;1.45;;;;;;;24.24;27.63;94368.56;5012996;28;20033;-82
2021/10/16 01:45:39;;;;;;;1.50;1.40;;;;;;;24.24;27.65;94368.56;5017228;28;20025;-82
2021/10/16 01:48:07;;;;;;;1.48;1.38;;;;;;;24.22;27.37;94365.41;5046948;28;20037;-82
2021/10/16 01:50:39;;;;;;;1.25;1.15;;;;;;;24.24;27.57;94360.59;5031777;28;20067;-83
2021/10/16 01:53:11;;;;;;;1.52;1.42;;;;;;;24.29;27.42;94365.84;5041404;28;20027;-82
2021/10/16 01:55:36;;;;;;;1.50;1.40;;;;;;;24.22;27.56;94368.06;5013138;28;20159;-82
2021/10/16 01:58:06;;;;;;;1.83;1.60;;;;;;;24.29;27.47;94365.84;5056171;28;20025;-82
2021/10/16 02:00:31;;;;;;;1.55;1.45;;;;;;;24.23;27.54;94367.78;5024662;28;20078;-82
2021/10/16 02:02:56;;;;;;;2.28;1.50;;;;;;;24.19;27.42;94362.25;5058016;28;20028;-82
2021/10/16 02:05:22;;;;;;;1.50;1.38;;;;;;;24.22;27.49;94363.56;5052096;28;20025;-82
2021/10/16 02:07:50;;;;;;;1.50;1.40;;;;;;;24.14;27.22;94349.03;5031395;28;20056;-82
2021/10/16 02:10:18;;;;;;;1.40;1.30;;;;;;;24.20;27.52;94357.75;5033066;28;20028;-82
2021/10/16 02:12:43;;;;;;;1.48;1.38;;;;;;;24.20;27.66;94358.53;5014973;28;20087;-82
2021/10/16 02:15:11;;;;;;;1.70;1.40;;;;;;;24.22;27.37;94357.44;5033193;28;20025;-82
2021/10/16 02:17:36;;;;;;;1.48;1.38;;;;;;;24.19;27.47;94356.94;5030541;28;20383;-82
2021/10/16 02:20:05;;;;;;;1.50;1.40;;;;;;;24.21;27.33;94359.31;5010898;28;20033;-82
2021/10/16 02:22:35;;;;;;;1.50;1.40;;;;;;;24.27;27.09;94363.47;5041371;28;20029;-83
2021/10/16 02:25:02;;;;;;;;;;;;;;;24.42;27.28;94356.41;5028317;28;20069;-82
2021/10/16 02:27:28;;;;;;;1.30;1.20;;;;;;;24.27;27.25;94360.03;5033445;28;20007;-83
2021/10/16 02:29:53;;;;;;;1.52;1.40;;;;;;;24.24;27.33;94349.97;5024890;28;20043;-82
2021/10/16 02:32:21;;;;;;;1.52;1.40;;;;;;;24.25;27.12;94348.91;5019281;28;20438;-82
2021/10/16 02:34:47;;;;;;;1.58;1.48;;;;;;;24.20;27.28;94357.75;5021947;28;20033;-82
2021/10/16 02:37:12;;;;;;;1.40;1.30;;;;;;;24.21;27.00;94354.00;5045817;28;20040;-83
2021/10/16 02:39:37;;;;;;;1.75;1.65;;;;;;;24.11;27.16;94343.50;5013951;28;20036;-82
2021/10/16 02:42:05;;;;;;;1.55;1.45;;;;;;;24.18;27.34;94354.56;5015358;28;20088;-82
2021/10/16 02:44:31;;;;;;;1.95;1.40;;;;;;;24.15;27.16;94355.91;5031552;28;20041;-82
2021/10/16 02:46:59;;;;;;;1.45;1.35;;;;;;;24.25;27.06;94355.00;5027391;28;20040;-82
2021/10/16 02:49:25;;;;;;;1.55;1.45;;;;;;;24.10;27.16;94340.03;5057449;28;20060;-82
2021/10/16 02:51:50;;;;;;;1.50;1.40;;;;;;;24.19;27.27;94353.47;5049685;28;20135;-82
2021/10/16 02:54:18;;;;;;;1.45;1.30;;;;;;;24.09;27.27;94341.13;5015231;28;20025;-83
2021/10/16 02:56:43;;;;;;;1.30;1.20;;;;;;;24.19;27.15;94361.47;5012495;28;20060;-83
2021/10/16 02:59:11;;;;;;;1.40;1.30;;;;;;;24.22;27.30;94360.09;5025510;28;20083;-82
2021/10/16 03:01:36;;;;;;;1.75;1.50;;;;;;;24.14;27.07;94359.66;5012859;28;20024;-82
2021/10/16 03:04:02;;;;;;;1.55;1.40;;;;;;;24.02;27.17;94339.88;5061934;28;20036;-82
2021/10/16 03:06:30;;;;;;;1.42;1.33;;;;;;;24.07;27.09;94353.91;5022186;28;20067;-83
2021/10/16 03:08:57;;;;;;;1.33;1.23;;;;;;;24.14;27.11;94359.66;5059877;28;20028;-82
2021/10/16 03:11:23;;;;;;;1.50;1.40;;;;;;;24.17;27.25;94367.03;5033318;28;20087;-82
2021/10/16 03:13:48;;;;;;;1.52;1.42;;;;;;;24.13;27.14;94363.38;5029021;28;20033;-82
2021/10/16 03:16:16;;;;;;;1.30;1.20;;;;;;;24.04;27.11;94349.13;5035189;28;20021;-83
2021/10/16 03:18:48;;;;;;;1.55;1.38;;;;;;;24.23;27.03;94372.31;5019056;28;20024;-83
2021/10/16 03:21:13;;;;;;;1.48;1.25;;;;;;;24.18;26.81;94373.19;5013878;28;20025;-82
2021/10/16 03:23:39;;;;;;;1.40;1.20;;;;;;;24.11;26.92;94360.22;5035619;28;20036;-82
2021/10/16 03:26:04;;;;;;;1.38;1.23;;;;;;;24.15;26.90;94365.75;5012930;28;20040;-82
2021/10/16 03:28:30;;;;;;;1.40;1.30;;;;;;;24.15;26.86;94366.53;5035266;28;20025;-82
2021/10/16 03:30:55;;;;;;;1.27;1.17;;;;;;;24.14;26.96;94364.97;5043689;28;20075;-83
2021/10/16 03:33:26;;;;;;;1.30;1.20;;;;;;;24.16;27.13;94362.81;5036898;28;20041;-83
2021/10/16 03:35:51;;;;;;;;;;;;;;;24.37;27.22;94374.00;5011014;28;20024;-82
2021/10/16 03:38:16;;;;;;;1.20;1.10;;;;;;;24.24;26.83;94368.56;5056173;28;19923;-83
2021/10/16 03:40:42;;;;;;;1.40;1.30;;;;;;;24.15;26.79;94361.22;5017616;28;20033;-82
2021/10/16 03:43:07;;;;;;;1.50;1.30;;;;;;;24.18;26.95;94371.31;5035224;28;20024;-82
2021/10/16 03:45:33;;;;;;;1.38;1.27;;;;;;;24.10;27.00;94353.31;5032776;28;20025;-82
2021/10/16 03:47:58;;;;;;;1.40;1.30;;;;;;;24.12;27.01;94364.47;5035505;28;20380;-82
2021/10/16 03:50:28;;;;;;;1.50;1.40;;;;;;;24.19;26.71;94362.25;5036485;28;20029;-82
2021/10/16 03:52:58;;;;;;;1.50;1.40;;;;;;;24.14;27.00;94364.97;5020369;28;20032;-82
2021/10/16 03:55:28;;;;;;;1.30;1.20;;;;;;;24.17;26.75;94352.97;5019213;28;20063;-82
2021/10/16 03:57:54;;;;;;;1.27;1.17;;;;;;;24.14;26.90;94359.66;5049543;28;20021;-82
2021/10/16 04:00:20;;;;;;;1.48;1.38;;;;;;;24.04;26.67;94351.78;5020004;28;20037;-82
2021/10/16 04:02:51;;;;;;;1.55;1.25;;;;;;;24.10;26.70;94369.25;5035110;28;20246;-83
2021/10/16 04:05:17;;;;;;;1.30;1.20;;;;;;;24.15;26.59;94379.03;5035542;28;20037;-82
2021/10/16 04:07:42;;;;;;;1.42;1.33;;;;;;;24.13;26.59;94374.00;5021356;28;20079;-82
2021/10/16 04:10:08;;;;;;;1.50;1.40;;;;;;;24.11;26.58;94375.38;5025942;28;20043;-83
2021/10/16 04:12:34;;;;;;;1.45;1.30;;;;;;;24.02;26.79;94359.25;5015463;28;20055;-83
2021/10/16 04:14:59;;;;;;;1.48;1.38;;;;;;;24.13;26.54;94381.97;5051633;28;20101;-82
2021/10/16 04:17:25;;;;;;;1.38;1.27;;;;;;;24.01;26.71;94360.34;5057952;28;20025;-82
2021/10/16 04:19:50;;;;;;;1.17;1.10;;;;;;;24.10;26.83;94374.56;5074426;28;20046;-82
2021/10/16 04:22:16;;;;;;;1.50;1.40;;;;;;;24.01;26.72;94363.00;5053808;28;20037;-82
2021/10/16 04:24:41;;;;;;;1.70;1.40;;;;;;;24.11;26.51;94378.03;5057877;28;20048;-82
2021/10/16 04:27:07;;;;;;;1.50;1.30;;;;;;;24.14;26.43;94378.25;5055752;28;20056;-82
2021/10/16 04:29:32;;;;;;;1.30;1.20;;;;;;;24.06;26.79;94373.56;5057419;28;20021;-82
2021/10/16 04:31:58;;;;;;;1.33;1.23;;;;;;;24.13;26.82;94387.28;5052666;28;20040;-83
2021/10/16 04:34:23;;;;;;;1.27;1.17;;;;;;;24.02;26.69;94366.44;5052463;28;20029;-82
2021/10/16 04:36:49;;;;;;;1.55;1.40;;;;;;;24.10;26.33;94374.56;5045500;28;20041;-82
2021/10/16 04:39:14;;;;;;;1.48;1.38;;;;;;;23.99;26.31;94357.97;5038946;28;20028;-82
2021/10/16 04:41:40;;;;;;;1.58;1.48;;;;;;;24.05;26.35;94371.19;5043839;28;20029;-83
2021/10/16 04:44:05;;;;;;;1.50;1.40;;;;;;;24.08;26.25;94370.63;5038970;28;20025;-83
2021/10/16 04:46:33;;;;;;;2.13;1.45;;;;;;;24.13;25.88;94366.03;5032657;28;20020;-83
2021/10/16 04:48:59;;;;;;;1.73;1.63;;;;;;;24.09;26.28;94372.22;5037351;28;20024;-82
2021/10/16 04:51:27;;;;;;;1.50;1.40;;;;;;;24.10;25.99;94368.47;5030164;28;20043;-82
2021/10/16 04:53:54;;;;;;;1.55;1.40;;;;;;;24.11;26.03;94376.16;5034835;28;20037;-82
2021/10/16 04:56:22;;;;;;;1.75;1.65;;;;;;;23.99;25.90;94365.16;5034350;28;20033;-82
2021/10/16 04:58:47;;;;;;;1.98;1.80;;;;;;;23.96;26.11;94361.19;5035128;28;20029;-82
2021/10/16 05:01:13;;;;;;;1.85;1.45;;;;;;;23.93;25.96;94361.75;5051977;28;20040;-82
2021/10/16 05:03:38;;;;;;;2.13;1.92;;;;;;;23.98;25.90;94360.91;5011088;28;20036;-83
2021/10/16 05:06:04;;;;;;;1.98;1.77;;;;;;;23.89;26.09;94349.31;5040522;28;20044;-82
2021/10/16 05:08:30;;;;;;;2.25;1.75;;;;;;;23.97;25.96;94364.63;5039915;28;20032;-82
2021/10/16 05:10:59;;;;;;;2.38;1.98;;;;;;;23.94;26.03;94362.53;5017327;28;20083;-82
2021/10/16 05:13:24;;;;;;;2.38;1.92;;;;;;;23.98;26.09;94367.00;5047053;28;20040;-82
2021/10/16 05:15:52;;;;;;;2.20;1.85;;;;;;;23.99;26.24;94373.13;5033621;28;20028;-83
2021/10/16 05:18:17;;;;;;;2.42;1.90;;;;;;;23.90;26.21;94359.66;5013072;28;20457;-82
2021/10/16 05:20:43;;;;;;;2.45;1.88;;;;;;;23.89;26.22;94363.38;5018995;28;20032;-83
2021/10/16 05:23:13;;;;;;;2.00;1.80;;;;;;;24.02;26.20;94369.88;5033621;28;20036;-82
2021/10/16 05:25:40;;;;;;;3.13;1.75;;;;;;;24.00;26.46;94370.16;5048723;28;20033;-82
2021/10/16 05:28:11;;;;;;;1.92;1.63;;;;;;;23.91;26.44;94360.44;5012770;28;20043;-82
2021/10/16 05:30:39;;;;;;;2.22;1.80;;;;;;;23.91;26.27;94358.59;5017832;28;20040;-82
2021/10/16 05:33:04;;;;;;;2.55;1.80;;;;;;;23.91;26.43;94361.25;5022217;28;20041;-82
2021/10/16 05:35:30;;;;;;;1.77;1.58;;;;;;;23.97;26.48;94364.63;5048349;28;20029;-82
2021/10/16 05:37:55;;;;;;;2.22;1.70;;;;;;;23.93;26.42;94358.28;5031475;28;20033;-83
2021/10/16 05:40:25;;;;;;;2.10;1.80;;;;;;;24.06;26.30;94378.88;5028904;28;20036;-83
2021/10/16 05:42:53;;;;;;;2.28;1.80;;;;;;;24.02;26.28;94371.75;5059729;28;20059;-83
2021/10/16 05:45:21;;;;;;;2.10;1.85;;;;;;;24.10;26.32;94379.09;5016126;28;20041;-82
2021/10/16 05:47:49;;;;;;;2.35;1.92;;;;;;;24.12;26.43;94388.38;5056929;28;20021;-82
2021/10/16 05:50:14;;;;;;;2.30;1.90;;;;;;;24.15;26.40;94382.47;5029158;28;20036;-82
2021/10/16 05:52:40;;;;;;;2.45;2.22;;;;;;;24.15;26.54;94379.81;5044912;28;20040;-83
2021/10/16 05:55:06;;;;;;;2.25;1.83;;;;;;;24.16;26.25;94384.06;5027214;28;20037;-83
2021/10/16 05:57:32;;;;;;;1.95;1.75;;;;;;;24.17;26.40;94384.88;5039478;28;20214;-82
2021/10/16 06:00:03;;;;;;;2.60;2.00;;;;;;;24.19;26.48;94391.47;5016785;28;20442;-83
2021/10/16 06:02:28;;;;;;;2.58;2.05;;;;;;;24.22;26.25;94389.31;5047228;28;20043;-82
2021/10/16 06:04:58;;;;;;;2.63;2.00;;;;;;;24.26;26.29;94395.66;5030415;28;20032;-83
2021/10/16 06:07:24;;;;;;;;;;;;;;;24.46;26.27;94403.38;5043271;28;20111;-82
2021/10/16 06:09:51;;;;;;;2.67;1.70;;;;;;;24.27;26.25;94383.94;5035087;28;20066;-82
2021/10/16 06:12:17;;;;;;;2.50;2.08;;;;;;;24.32;26.36;94392.66;5013552;28;20287;-83
2021/10/16 06:14:42;;;;;;;2.03;1.80;;;;;;;24.34;26.25;94403.78;5011823;28;20036;-83
2021/10/16 06:17:08;;;;;;;2.20;1.90;;;;;;;24.34;26.30;94395.03;5049568;28;20060;-82
2021/10/16 06:19:33;;;;;;;2.65;2.20;;;;;;;24.34;26.03;94395.03;5024553;28;20021;-82
2021/10/16 06:22:01;;;;;;;2.42;2.03;;;;;;;24.36;26.40;94406.16;5037968;28;20060;-82
2021/10/16 06:24:26;;;;;;;2.85;2.20;;;;;;;24.37;26.49;94399.78;5023393;28;20037;-83
2021/10/16 06:26:52;;;;;;;2.25;2.05;;;;;;;24.37;26.78;94402.44;5033414;28;20039;-82
2021/10/16 06:29:20;;;;;;;2.55;2.15;;;;;;;24.40;26.46;94407.19;5049562;28;20025;-83
2021/10/16 06:31:48;;;;;;;2.47;2.28;;;;;;;24.46;26.28;94402.59;5034409;28;20039;-83
2021/10/16 06:34:16;;;;;;;2.55;2.13;;;;;;;24.42;26.60;94404.25;5013534;28;20047;-83
2021/10/16 06:36:42;;;;;;;2.50;2.10;;;;;;;24.43;26.53;94398.66;5034844;28;20033;-82
2021/10/16 06:39:09;;;;;;;2.88;2.22;;;;;;;24.45;26.31;94411.66;5039804;28;20022;-82
2021/10/16 06:41:35;;;;;;;2.95;2.22;;;;;;;24.46;26.41;94402.59;5035964;28;20029;-82
2021/10/16 06:44:00;;;;;;;3.13;2.17;;;;;;;24.47;26.69;94401.53;5032634;28;20040;-83
2021/10/16 06:46:26;;;;;;;2.40;2.20;;;;;;;24.48;26.54;94406.53;5050024;28;20024;-83
2021/10/16 06:48:51;;;;;;;2.50;2.30;;;;;;;24.48;26.32;94406.53;5030873;28;20025;-82
2021/10/16 06:51:17;;;;;;;3.15;2.30;;;;;;;24.47;26.71;94404.19;5014061;28;20043;-83
2021/10/16 06:53:42;;;;;;;2.45;2.15;;;;;;;24.49;26.45;94397.50;5037993;28;20044;-82
2021/10/16 06:56:08;;;;;;;2.67;2.20;;;;;;;24.46;26.74;94403.38;5028013;28;20044;-82
2021/10/16 06:58:33;;;;;;;2.38;2.03;;;;;;;24.53;26.55;94409.16;5036411;28;20026;-82
2021/10/16 07:00:59;;;;;;;2.75;2.03;;;;;;;24.53;26.55;94408.38;5013353;28;20048;-83
2021/10/16 07:03:27;;;;;;;2.40;2.20;;;;;;;24.59;26.54;94413.34;5054716;28;20036;-83
2021/10/16 07:05:55;;;;;;;2.25;2.05;;;;;;;24.56;26.42;94415.78;5028280;28;20040;-82
2021/10/16 07:08:29;;;;;;;2.20;2.00;;;;;;;24.57;26.70;94418.16;5042076;28;20024;-83
2021/10/16 07:10:56;;;;;;;2.35;2.03;;;;;;;24.58;26.60;94419.75;5035654;28;20040;-82
2021/10/16 07:13:21;;;;;;;2.30;2.10;;;;;;;24.55;26.42;94417.66;5040635;28;20024;-82
2021/10/16 07:15:47;;;;;;;2.30;2.10;;;;;;;24.58;26.55;94414.44;5021513;28;20063;-83
2021/10/16 07:18:12;;;;;;;2.33;2.03;;;;;;;24.62;26.81;94421.81;5050883;28;20025;-82
2021/10/16 07:20:37;;;;;;;2.33;2.13;;;;;;;24.61;26.87;94425.56;5015031;28;20035;-82
2021/10/16 07:23:03;;;;;;;2.28;2.00;;;;;;;24.63;26.72;94431.41;5019323;28;20033;-83
2021/10/16 07:25:30;;;;;;;2.00;1.80;;;;;;;24.65;26.65;94435.34;5021691;28;20087;-83
2021/10/16 07:27:58;;;;;;;2.25;2.05;;;;;;;24.66;26.76;94438.81;5018818;28;20029;-83
2021/10/16 07:30:24;;;;;;;2.17;1.98;;;;;;;24.67;26.93;94437.72;5016105;28;20033;-82
2021/10/16 07:32:50;;;;;;;2.33;2.13;;;;;;;24.66;26.90;94436.16;5050151;28;20047;-83
2021/10/16 07:35:15;;;;;;;2.22;2.03;;;;;;;24.69;27.07;94444.31;5049276;28;20170;-82
2021/10/16 07:37:41;;;;;;;1.95;1.75;;;;;;;24.67;26.76;94440.38;5034851;28;20044;-83
2021/10/16 07:40:07;;;;;;;2.22;2.03;;;;;;;24.69;26.93;94443.53;5037658;28;20032;-82
2021/10/16 07:42:37;;;;;;;2.25;1.95;;;;;;;24.70;27.04;94440.59;5034400;28;20032;-82
2021/10/16 07:45:02;;;;;;;;;;;;;;;24.90;26.77;94444.06;5044626;28;20208;-83
2021/10/16 07:47:30;;;;;;;2.33;2.00;;;;;;;24.77;26.72;94445.59;5032686;28;19991;-82
2021/10/16 07:49:55;;;;;;;2.67;1.90;;;;;;;24.77;27.04;94448.25;5050233;28;20095;-82
2021/10/16 07:52:24;;;;;;;2.10;1.90;;;;;;;24.76;27.19;94444.00;5015543;28;20037;-83
2021/10/16 07:54:52;;;;;;;2.00;1.80;;;;;;;24.76;27.28;94439.44;5040752;28;20033;-83
2021/10/16 07:57:17;;;;;;;2.03;1.88;;;;;;;24.74;26.89;94440.81;5050628;28;20044;-83
2021/10/16 07:59:45;;;;;;;2.50;2.30;;;;;;;24.74;27.11;94441.59;5045915;28;20020;-83
2021/10/16 08:02:10;;;;;;;2.00;1.80;;;;;;;24.76;27.34;94441.31;5036052;28;20033;-83
2021/10/16 08:04:36;;;;;;;1.98;1.77;;;;;;;24.78;27.34;94447.16;5036680;28;20036;-83
2021/10/16 08:07:01;;;;;;;1.83;1.60;;;;;;;24.78;27.25;94439.16;5032848;28;20063;-82
2021/10/16 08:09:27;;;;;;;2.10;1.73;;;;;;;24.79;27.32;94443.44;5034933;28;20021;-83
2021/10/16 08:11:52;;;;;;;2.13;1.80;;;;;;;24.81;27.57;94445.78;5015361;28;20122;-82
2021/10/16 08:14:18;;;;;;;2.05;1.67;;;;;;;24.82;27.43;94437.53;5049256;28;20021;-82
2021/10/16 08:16:43;;;;;;;2.25;2.05;;;;;;;24.83;27.44;94441.78;5037352;28;20028;-83
2021/10/16 08:19:09;;;;;;;1.92;1.73;;;;;;;24.83;27.66;94443.63;5017002;28;20029;-83
2021/10/16 08:21:35;;;;;;;2.10;1.90;;;;;;;24.84;27.41;94440.69;5045278;28;20032;-83
2021/10/16 08:24:03;;;;;;;2.03;1.90;;;;;;;24.84;27.51;94440.69;5033336;28;20028;-82
2021/10/16 08:26:29;;;;;;;2.13;1.92;;;;;;;24.84;27.82;94442.56;5025432;28;20040;-83
2021/10/16 08:28:57;;;;;;;1.83;1.70;;;;;;;24.86;27.64;94443.84;5018583;28;20029;-82
2021/10/16 08:31:24;;;;;;;2.20;2.00;;;;;;;24.80;27.47;94433.56;5015896;28;20041;-83
2021/10/16 08:33:50;;;;;;;2.42;2.22;;;;;;;24.88;27.49;94447.00;5049184;28;20039;-82
2021/10/16 08:36:15;;;;;;;1.90;1.70;;;;;;;24.88;27.53;94444.34;5060820;28;20037;-83
2021/10/16 08:38:41;;;;;;;2.15;1.95;;;;;;;24.89;27.83;94447.81;5016631;28;20029;-82
2021/10/16 08:41:09;;;;;;;2.00;1.80;;;;;;;24.94;27.70;94447.72;5038626;28;20047;-83
2021/10/16 08:43:35;;;;;;;1.92;1.73;;;;;;;24.90;27.70;94450.19;5014201;28;20096;-82
2021/10/16 08:46:03;;;;;;;2.30;2.10;;;;;;;24.89;27.60;94447.81;5058932;28;20446;-82
2021/10/16 08:48:29;;;;;;;1.98;1.80;;;;;;;24.87;27.65;94445.44;5030990;28;20154;-82
2021/10/16 08:50:55;;;;;;;2.10;1.90;;;;;;;24.91;27.85;94446.44;5054718;28;20047;-83
2021/10/16 08:53:20;;;;;;;1.65;1.55;;;;;;;24.93;27.94;94454.16;5033064;28;20025;-83
2021/10/16 08:55:52;;;;;;;2.47;1.90;;;;;;;24.98;27.85;94448.75;5044768;28;20033;-83
2021/10/16 08:58:20;;;;;;;2.30;1.95;;;;;;;24.94;27.92;94455.72;5021593;28;20029;-83
2021/10/16 09:00:52;;;;;;;2.10;1.90;;;;;;;25.03;27.60;94453.22;5033180;28;20036;-82
2021/10/16 09:03:21;;;;;;;1.88;1.77;;;;;;;25.04;27.95;94458.25;5011358;28;20025;-83
2021/10/16 09:06:02;;;;;;;3.30;1.92;;;;;;;25.05;27.45;94462.47;5051812;28;20029;-82
2021/10/16 09:08:31;;;;;;;2.08;1.90;;;;;;;24.97;28.00;94458.59;5011588;28;20020;-83
2021/10/16 09:11:15;;;;;;;1.98;1.80;;;;;;;25.08;27.51;94455.81;5032000;28;20059;-82
2021/10/16 09:13:47;;;;;;;2.42;2.10;;;;;;;25.08;27.56;94461.13;5033704;28;20025;-82
2021/10/16 09:16:20;;;;;;;2.28;2.08;;;;;;;25.08;27.70;94461.91;5049852;28;20040;-83
2021/10/16 09:18:58;;;;;;;1.83;1.70;;;;;;;25.04;27.58;94460.13;5027766;28;20021;-82
2021/10/16 09:21:25;;;;;;;2.40;2.20;;;;;;;25.01;27.90;94466.00;5037110;28;20078;-83
2021/10/16 09:24:08;;;;;;;2.92;2.40;;;;;;;25.07;27.83;94459.53;5018578;28;20043;-83
2021/10/16 09:26:34;;;;;;;2.70;2.50;;;;;;;25.00;28.13;94467.06;5048533;28;20029;-82
2021/10/16 09:29:03;;;;;;;2.55;2.35;;;;;;;25.05;27.94;94462.47;5011800;28;20017;-83
2021/10/16 09:31:37;;;;;;;2.97;2.67;;;;;;;25.11;27.94;94471.19;5013988;28;20029;-83
2021/10/16 09:34:03;;;;;;;2.47;2.28;;;;;;;25.02;28.06;94462.25;5031522;28;20037;-82
2021/10/16 09:36:30;;;;;;;2.60;2.40;;;;;;;25.00;28.30;94465.22;5050111;28;20099;-82
2021/10/16 09:38:56;;;;;;;2.63;2.42;;;;;;;25.00;28.25;94464.41;5025393;28;20020;-83
2021/10/16 09:41:31;;;;;;;2.80;2.50;;;;;;;25.01;27.99;94468.66;5012491;28;20031;-82
2021/10/16 09:43:59;;;;;;;2.67;2.47;;;;;;;25.08;28.17;94471.78;5013862;28;20102;-83
2021/10/16 09:46:25;;;;;;;3.40;2.38;;;;;;;25.01;28.24;94466.00;5039452;28;20031;-82
2021/10/16 09:48:51;;;;;;;2.85;2.30;;;;;;;25.03;27.98;94467.28;5037606;28;20029;-82
2021/10/16 09:51:18;;;;;;;2.22;2.03;;;;;;;24.92;28.10;94445.38;5034544;28;20056;-82
2021/10/16 09:53:44;;;;;;;2.38;2.15;;;;;;;25.00;28.28;94457.25;5038187;28;20033;-82
2021/10/16 09:56:12;;;;;;;2.33;2.13;;;;;;;25.02;28.17;94460.41;5016724;28;20032;-83
2021/10/16 09:58:41;;;;;;;2.33;2.13;;;;;;;25.01;28.19;94455.38;5030324;28;20025;-82
2021/10/16 10:01:10;;;;;;;3.03;2.35;;;;;;;25.08;28.16;94461.13;5031663;28;20029;-82
2021/10/16 10:03:45;;;;;;;2.10;1.90;;;;;;;25.12;28.07;94462.91;5013058;28;20120;-82
2021/10/16 10:06:16;;;;;;;2.35;2.15;;;;;;;25.09;28.53;94458.19;5033339;28;20033;-83
2021/10/16 10:08:44;;;;;;;2.25;2.05;;;;;;;25.05;28.67;94459.03;5010796;28;20025;-83
2021/10/16 10:11:10;;;;;;;2.30;2.10;;;;;;;25.04;28.46;94457.47;5048421;28;20029;-83
2021/10/16 10:13:35;;;;;;;2.47;2.28;;;;;;;25.04;28.67;94457.47;5057536;28;20037;-83
2021/10/16 10:16:03;;;;;;;2.53;2.33;;;;;;;25.06;28.74;94452.66;5031375;28;20032;-83
2021/10/16 10:21:14;;;;;;;2.30;2.08;;;;;;;25.07;28.65;94454.22;5035337;28;20044;-82
2021/10/16 10:23:55;;;;;;;2.58;2.33;;;;;;;25.15;28.68;94454.38;5020032;28;20038;-82
2021/10/16 10:26:29;;;;;;;2.45;2.25;;;;;;;25.13;28.79;94455.72;5016264;28;20060;-83
2021/10/16 10:29:02;;;;;;;2.47;2.28;;;;;;;25.17;28.53;94465.53;5046721;28;20025;-82
2021/10/16 10:31:48;;;;;;;2.80;2.10;;;;;;;25.19;28.66;94451.94;5030946;28;20032;-82
2021/10/16 10:34:30;;;;;;;2.38;2.17;;;;;;;25.15;28.32;94442.91;5058926;28;20041;-82
2021/10/16 10:37:06;;;;;;;2.17;1.98;;;;;;;25.16;28.80;94450.63;5017481;28;20028;-83
2021/10/16 10:39:35;;;;;;;2.38;2.10;;;;;;;25.12;29.15;94460.25;5039747;28;20032;-83
2021/10/16 10:42:13;;;;;;;2.20;2.00;;;;;;;25.10;29.11;94449.13;5046621;28;20036;-82
2021/10/16 10:44:39;;;;;;;2.40;2.13;;;;;;;25.11;29.11;94449.91;5030883;28;20029;-82
2021/10/16 10:47:35;;;;;;;2.38;2.17;;;;;;;25.23;28.70;94458.28;5032018;28;20082;-82
2021/10/16 10:50:03;;;;;;;2.30;2.10;;;;;;;25.16;29.21;94449.84;5041815;28;20028;-83
2021/10/16 10:52:59;;;;;;;2.55;1.88;;;;;;;25.25;28.69;94456.13;5031945;28;20024;-83
2021/10/16 10:55:28;;;;;;;2.25;2.05;;;;;;;25.16;29.10;94447.97;5029357;28;20025;-83
2021/10/16 10:58:00;;;;;;;3.28;2.20;;;;;;;25.17;29.41;94443.44;5046513;28;20021;-82
2021/10/16 11:00:31;;;;;;;2.67;2.35;;;;;;;25.23;29.18;94441.53;5042558;28;20029;-82
2021/10/16 11:02:59;;;;;;;2.20;2.00;;;;;;;25.16;29.44;94437.31;5048857;28;20071;-83
2021/10/16 11:05:34;;;;;;;2.10;1.90;;;;;;;25.27;28.97;94438.00;5044321;28;20051;-82
2021/10/16 11:08:04;;;;;;;2.10;1.90;;;;;;;25.28;29.48;94436.91;5056280;28;20067;-83
2021/10/16 11:10:32;;;;;;;2.22;1.88;;;;;;;25.21;29.01;94430.31;5037130;28;20048;-83
2021/10/16 11:12:57;;;;;;;2.10;1.90;;;;;;;25.21;29.37;94427.66;5053371;28;20050;-83
2021/10/16 11:15:23;;;;;;;2.38;2.17;;;;;;;25.24;29.52;94433.25;5030352;28;20025;-83
2021/10/16 11:17:49;;;;;;;2.10;1.90;;;;;;;25.23;29.06;94421.03;5047872;28;20315;-83
2021/10/16 11:20:24;;;;;;;2.55;1.85;;;;;;;25.32;28.95;94413.97;5013576;28;20028;-83
2021/10/16 11:22:56;;;;;;;1.80;1.70;;;;;;;25.27;29.28;94416.69;5046555;28;20036;-83
2021/10/16 11:25:26;;;;;;;2.30;2.10;;;;;;;25.35;29.19;94418.69;5028656;28;20085;-83
2021/10/16 11:28:03;;;;;;;2.13;1.92;;;;;;;25.40;28.98;94414.38;5036206;28;20029;-83
2021/10/16 11:30:31;;;;;;;1.95;1.85;;;;;;;25.30;29.30;94413.47;5044628;28;20049;-83
2021/10/16 11:33:08;;;;;;;2.10;1.90;;;;;;;25.38;29.16;94400.56;5022406;28;20020;-83
2021/10/16 11:35:34;;;;;;;2.10;1.90;;;;;;;25.28;29.46;94404.97;5060095;28;20056;-83
2021/10/16 11:38:07;;;;;;;2.25;1.70;;;;;;;25.37;29.44;94402.44;5011893;28;20076;-83